Time;durP1;ratioP1;P1;durP2;ratioP2;P2;SDS_P1;SDS_P2;PMS_P1;PMS_P2;Temp;Humidity;BMP_temperature;BMP_pressure;BME280_temperature;BME280_humidity;BME280_pressure;Samples;Min_cycle;Max_cycle;Signal;HPM_P1;HPM_P2
2022/04/19 00:01:43;;;;;;;10.27;6.25;;;8.20;99.90;;;;;;5004415;28;20045;-73
2022/04/19 00:04:09;;;;;;;11.60;7.03;;;8.10;99.90;;;;;;5010238;28;20053;-73
2022/04/19 00:06:36;;;;;;;11.30;6.18;;;7.90;99.90;;;;;;5012655;28;20052;-73
2022/04/19 00:09:03;;;;;;;15.27;6.30;;;7.90;99.90;;;;;;5010276;28;20059;-73
2022/04/19 00:11:29;;;;;;;13.00;6.30;;;7.90;99.90;;;;;;4993037;28;20086;-74
2022/04/19 00:13:55;;;;;;;10.55;5.97;;;7.90;99.90;;;;;;4994219;28;20059;-74
2022/04/19 00:16:20;;;;;;;11.60;6.25;;;7.70;99.90;;;;;;5010465;28;20480;-74
2022/04/19 00:18:46;;;;;;;10.45;6.45;;;7.80;99.90;;;;;;5010448;28;20045;-73
2022/04/19 00:21:12;;;;;;;13.48;7.28;;;7.80;99.90;;;;;;4996756;28;20048;-74
2022/04/19 00:23:38;;;;;;;14.80;7.30;;;7.80;99.90;;;;;;5001679;28;20042;-73
2022/04/19 00:26:04;;;;;;;15.93;7.05;;;7.70;99.90;;;;;;5007486;28;20105;-73
2022/04/19 00:28:31;;;;;;;15.85;7.00;;;7.70;99.90;;;;;;5009503;28;20818;-73
2022/04/19 00:30:57;;;;;;;15.48;6.85;;;7.80;99.90;;;;;;4992760;28;20860;-73
2022/04/19 00:33:23;;;;;;;13.15;6.75;;;7.80;99.90;;;;;;5009496;28;20072;-73
2022/04/19 00:35:49;;;;;;;12.18;6.72;;;7.80;99.90;;;;;;4993348;28;20176;-73
2022/04/19 00:38:15;;;;;;;12.02;7.28;;;7.60;99.90;;;;;;5013838;28;20106;-74
2022/04/19 00:40:41;;;;;;;13.27;6.80;;;7.90;99.90;;;;;;5008200;28;20117;-73
2022/04/19 00:43:08;;;;;;;11.15;7.13;;;7.80;99.90;;;;;;5011369;28;20063;-73
2022/04/19 00:45:34;;;;;;;11.27;6.75;;;7.90;99.90;;;;;;5025229;28;20072;-73
2022/04/19 00:48:02;;;;;;;12.30;7.05;;;7.70;99.90;;;;;;5018824;28;20174;-73
2022/04/19 00:50:30;;;;;;;13.27;6.90;;;8.30;99.90;;;;;;5027693;28;20111;-73
2022/04/19 00:52:57;;;;;;;9.38;6.80;;;8.00;99.90;;;;;;5007388;28;20070;-73
2022/04/19 00:55:23;;;;;;;12.90;6.45;;;8.30;99.90;;;;;;5017461;28;20084;-73
2022/04/19 00:57:50;;;;;;;12.05;6.82;;;8.40;99.90;;;;;;5026383;28;20028;-73
2022/04/19 01:00:17;;;;;;;11.27;7.22;;;8.50;99.90;;;;;;5010591;28;20059;-73
2022/04/19 01:02:44;;;;;;;11.50;6.95;;;8.50;99.90;;;;;;5006955;28;20094;-73
2022/04/19 01:05:10;;;;;;;11.43;6.75;;;8.40;99.90;;;;;;5004319;28;20055;-73
2022/04/19 01:07:38;;;;;;;49.33;10.05;;;8.40;99.90;;;;;;5022570;28;20051;-73
2022/04/19 01:10:04;;;;;;;11.90;6.40;;;8.40;99.90;;;;;;5008926;28;20048;-73
2022/04/19 01:15:16;;;;;;;11.80;7.55;;;7.80;99.90;;;;;;5006299;28;20076;-73
2022/04/19 01:17:42;;;;;;;11.93;7.30;;;7.80;99.90;;;;;;5010507;28;20134;-73
2022/04/19 01:20:10;;;;;;;13.00;7.35;;;7.80;99.90;;;;;;5026334;28;20127;-73
2022/04/19 01:22:42;;;;;;;11.25;6.53;;;7.70;99.90;;;;;;5010113;28;20053;-73
2022/04/19 01:25:10;;;;;;;12.38;6.68;;;7.50;99.90;;;;;;5008006;28;20070;-73
2022/04/19 01:27:37;;;;;;;15.68;7.43;;;7.50;99.90;;;;;;5027553;28;20070;-73
2022/04/19 01:30:05;;;;;;;13.05;6.85;;;7.40;99.90;;;;;;5029158;28;20053;-74
2022/04/19 01:32:32;;;;;;;16.52;7.63;;;7.40;99.90;;;;;;5030468;28;20060;-74
2022/04/19 01:35:10;;;;;;;11.40;7.82;;;7.40;99.90;;;;;;5011912;28;20060;-74
2022/04/19 01:37:38;;;;;;;18.92;7.95;;;7.40;99.90;;;;;;5029050;28;20049;-74
2022/04/19 01:40:17;;;;;;;19.08;7.53;;;7.40;99.90;;;;;;5030462;28;20057;-74
2022/04/19 01:42:47;;;;;;;12.98;7.35;;;7.30;99.90;;;;;;5027431;28;20498;-74
2022/04/19 01:45:18;;;;;;;14.48;6.95;;;7.20;99.90;;;;;;5004591;28;20550;-74
2022/04/19 01:47:44;;;;;;;13.10;8.13;;;7.20;99.90;;;;;;5008559;28;20670;-74
2022/04/19 01:50:14;;;;;;;14.90;8.98;;;7.20;99.90;;;;;;5027900;28;20135;-74
2022/04/19 01:52:41;;;;;;;14.63;9.65;;;7.20;99.90;;;;;;5030352;28;20048;-74
2022/04/19 01:55:08;;;;;;;16.05;10.82;;;7.20;99.90;;;;;;5009920;28;20871;-74
2022/04/19 01:57:34;;;;;;;16.02;10.20;;;7.20;99.90;;;;;;5023587;28;20074;-74
2022/04/19 02:00:03;;;;;;;16.50;10.52;;;7.10;99.90;;;;;;5028886;28;20049;-74
2022/04/19 02:02:29;;;;;;;17.67;10.15;;;7.10;99.90;;;;;;5010867;28;20860;-74
2022/04/19 02:04:56;;;;;;;14.80;10.50;;;7.00;99.90;;;;;;5029095;28;20041;-74
2022/04/19 02:07:21;;;;;;;14.90;9.77;;;6.80;99.90;;;;;;5010033;28;20062;-74
2022/04/19 02:09:47;;;;;;;15.77;10.00;;;6.70;99.90;;;;;;5026135;28;20045;-74
2022/04/19 02:12:13;;;;;;;16.10;10.63;;;6.80;99.90;;;;;;5025595;28;20068;-74
2022/04/19 02:14:41;;;;;;;17.48;11.48;;;6.80;99.90;;;;;;5028130;28;20087;-74
2022/04/19 02:17:09;;;;;;;18.70;12.48;;;6.80;99.90;;;;;;5024973;28;20602;-74
2022/04/19 02:19:38;;;;;;;18.50;11.35;;;6.80;99.90;;;;;;5027325;28;20518;-74
2022/04/19 02:22:06;;;;;;;16.90;10.60;;;6.60;99.90;;;;;;5010422;28;20135;-74
2022/04/19 02:24:34;;;;;;;18.33;10.88;;;6.50;99.90;;;;;;5028815;28;20076;-74
2022/04/19 02:27:01;;;;;;;20.67;12.50;;;6.30;99.90;;;;;;5021022;28;20041;-74
2022/04/19 02:29:27;;;;;;;19.08;11.48;;;6.30;99.90;;;;;;5001980;28;20118;-74
2022/04/19 02:31:53;;;;;;;15.07;10.23;;;6.30;99.90;;;;;;5019226;28;21276;-74
2022/04/19 02:34:20;;;;;;;14.43;8.98;;;6.30;99.90;;;;;;5010657;28;20159;-74
2022/04/19 02:36:46;;;;;;;13.90;9.52;;;6.50;99.90;;;;;;5027591;28;20139;-74
2022/04/19 02:39:12;;;;;;;14.60;9.95;;;6.80;99.90;;;;;;5027876;28;20068;-74
2022/04/19 02:41:38;;;;;;;17.98;10.13;;;6.90;99.90;;;;;;5027956;28;20142;-74
2022/04/19 02:44:06;;;;;;;15.18;10.00;;;6.80;99.90;;;;;;5031851;28;20778;-74
2022/04/19 02:46:33;;;;;;;15.25;10.05;;;6.90;99.90;;;;;;5031033;28;20048;-74
2022/04/19 02:49:04;;;;;;;16.20;10.52;;;6.80;99.90;;;;;;5013096;28;20056;-74
2022/04/19 02:51:31;;;;;;;15.15;9.65;;;6.90;99.90;;;;;;5030045;28;20053;-74
2022/04/19 02:53:56;;;;;;;16.42;9.88;;;6.70;99.90;;;;;;5034493;28;20091;-74
2022/04/19 02:56:22;;;;;;;16.23;10.57;;;6.60;99.90;;;;;;5011267;28;20152;-74
2022/04/19 02:58:48;;;;;;;14.82;9.82;;;6.60;99.90;;;;;;5034089;28;20044;-74
2022/04/19 03:01:14;;;;;;;20.92;10.10;;;6.60;99.90;;;;;;5014906;28;20098;-74
2022/04/19 03:03:40;;;;;;;14.00;9.43;;;6.40;99.90;;;;;;5027265;28;20045;-74
2022/04/19 03:06:07;;;;;;;19.85;9.88;;;6.20;99.90;;;;;;5011474;28;20076;-74
2022/04/19 03:08:34;;;;;;;15.30;10.43;;;6.20;99.90;;;;;;5016842;28;20048;-74
2022/04/19 03:11:03;;;;;;;18.23;10.25;;;6.10;99.90;;;;;;5033453;28;20051;-74
2022/04/19 03:13:31;;;;;;;17.20;10.10;;;6.10;99.90;;;;;;5032175;28;20512;-74
2022/04/19 03:15:58;;;;;;;15.68;9.80;;;6.00;99.90;;;;;;5030919;28;20061;-74
2022/04/19 03:18:24;;;;;;;13.95;9.43;;;6.00;99.90;;;;;;5031048;28;20045;-74
2022/04/19 03:20:50;;;;;;;15.18;10.40;;;6.00;99.90;;;;;;5031800;28;20138;-74
2022/04/19 03:28:48;;;;;;;14.73;10.15;;;6.00;99.90;;;;;;5027793;28;20045;-74
2022/04/19 03:31:14;;;;;;;15.80;10.80;;;5.90;99.90;;;;;;5009938;28;20806;-74
2022/04/19 03:33:40;;;;;;;14.43;9.98;;;5.80;99.90;;;;;;5014847;28;21759;-74
2022/04/19 03:36:09;;;;;;;15.25;10.25;;;5.90;99.90;;;;;;5030520;28;20045;-74
2022/04/19 03:38:36;;;;;;;15.63;10.02;;;5.90;99.90;;;;;;5028425;28;20045;-74
2022/04/19 03:41:02;;;;;;;19.40;10.68;;;5.90;99.90;;;;;;5025337;28;20053;-74
2022/04/19 03:43:32;;;;;;;14.15;10.18;;;5.90;99.90;;;;;;5026217;28;20266;-74
2022/04/19 03:45:58;;;;;;;25.95;10.77;;;5.90;99.90;;;;;;5029283;28;20106;-74
2022/04/19 03:48:24;;;;;;;22.92;11.05;;;5.90;99.90;;;;;;5026199;28;20041;-74
2022/04/19 03:50:51;;;;;;;17.77;10.82;;;5.80;99.90;;;;;;5031169;28;20041;-74
2022/04/19 03:53:17;;;;;;;23.30;10.30;;;5.80;99.90;;;;;;5011236;28;20146;-74
2022/04/19 03:55:43;;;;;;;46.33;12.32;;;5.70;99.90;;;;;;5031409;28;20478;-74
2022/04/19 03:58:09;;;;;;;20.20;12.55;;;5.70;99.90;;;;;;5026511;28;20047;-74
2022/04/19 04:00:35;;;;;;;16.98;11.77;;;5.60;99.90;;;;;;5025503;28;20052;-74
2022/04/19 04:03:01;;;;;;;17.08;11.45;;;5.70;99.90;;;;;;5025117;28;20049;-74
2022/04/19 04:05:28;;;;;;;17.45;11.40;;;5.80;99.90;;;;;;5029642;28;20144;-74
2022/04/19 04:07:57;;;;;;;24.38;11.57;;;5.80;99.90;;;;;;5027250;28;20504;-74
2022/04/19 04:10:23;;;;;;;18.02;11.70;;;5.80;99.90;;;;;;5030466;28;20041;-74
2022/04/19 04:12:49;;;;;;;29.98;13.85;;;5.80;99.90;;;;;;5009517;28;20780;-73
2022/04/19 04:15:15;;;;;;;19.30;12.57;;;5.80;99.90;;;;;;5000709;28;20049;-73
2022/04/19 04:17:40;;;;;;;22.50;12.52;;;5.90;99.90;;;;;;5028084;28;20043;-74
2022/04/19 04:20:07;;;;;;;21.10;12.68;;;5.80;99.90;;;;;;5028387;28;20045;-74
2022/04/19 04:22:33;;;;;;;25.10;11.73;;;5.70;99.90;;;;;;5007102;28;20068;-74
2022/04/19 04:24:59;;;;;;;18.52;11.68;;;5.70;99.90;;;;;;5028703;28;20209;-74
2022/04/19 04:27:25;;;;;;;18.10;11.65;;;5.70;99.90;;;;;;5026580;28;20427;-74
2022/04/19 04:29:51;;;;;;;19.92;11.13;;;5.80;99.90;;;;;;5008177;28;20059;-74
2022/04/19 04:32:17;;;;;;;20.30;11.93;;;5.70;99.90;;;;;;5024694;28;20041;-74
2022/04/19 04:34:43;;;;;;;18.40;11.38;;;5.70;99.90;;;;;;5010408;28;20044;-74
2022/04/19 04:37:09;;;;;;;19.33;12.30;;;5.70;99.90;;;;;;5024821;28;20904;-73
2022/04/19 04:39:35;;;;;;;16.88;11.98;;;5.60;99.90;;;;;;5008452;28;20053;-74
2022/04/19 04:42:02;;;;;;;18.35;12.32;;;5.70;99.90;;;;;;5004399;28;20047;-74
2022/04/19 04:44:28;;;;;;;18.15;12.07;;;5.70;99.90;;;;;;5007144;28;20067;-74
2022/04/19 04:49:41;;;;;;;15.65;10.48;;;5.90;99.90;;;;;;5014388;28;20107;-74
2022/04/19 04:52:12;;;;;;;15.50;10.15;;;6.00;99.90;;;;;;5005917;28;20041;-74
2022/04/19 04:54:40;;;;;;;16.85;10.90;;;6.20;99.90;;;;;;5005781;28;20159;-74
2022/04/19 04:57:07;;;;;;;19.70;11.77;;;6.50;99.90;;;;;;5007181;28;20867;-74
2022/04/19 04:59:34;;;;;;;21.17;11.52;;;7.10;99.90;;;;;;5006508;28;20053;-74
2022/04/19 05:02:00;;;;;;;17.08;12.15;;;7.80;99.90;;;;;;5005421;28;20045;-74
2022/04/19 05:04:27;;;;;;;17.27;11.15;;;7.90;99.90;;;;;;5010509;28;20106;-74
2022/04/19 05:06:53;;;;;;;16.15;10.95;;;8.40;99.90;;;;;;4987124;28;20111;-74
2022/04/19 05:09:19;;;;;;;29.23;11.70;;;9.30;99.90;;;;;;5003866;28;20732;-74
2022/04/19 05:11:52;;;;;;;40.63;13.30;;;9.90;99.90;;;;;;5009235;28;20757;-74
2022/04/19 05:14:18;;;;;;;28.35;12.10;;;10.20;99.90;;;;;;5009388;28;20617;-74
2022/04/19 05:16:45;;;;;;;21.50;13.13;;;11.00;99.90;;;;;;5010907;28;20041;-74
2022/04/19 05:19:11;;;;;;;22.98;12.00;;;11.40;99.90;;;;;;5022864;28;20056;-74
2022/04/19 05:21:40;;;;;;;31.60;12.75;;;11.70;99.90;;;;;;5005902;28;20045;-74
2022/04/19 05:24:07;;;;;;;19.63;12.15;;;12.10;99.90;;;;;;4994664;28;20049;-74
2022/04/19 05:26:34;;;;;;;20.65;11.73;;;12.70;99.90;;;;;;5030943;28;20094;-74
2022/04/19 05:29:00;;;;;;;16.35;11.82;;;12.80;99.90;;;;;;5008108;28;20053;-74
2022/04/19 05:31:26;;;;;;;22.20;11.82;;;13.00;99.90;;;;;;5001818;28;20056;-74
2022/04/19 05:33:52;;;;;;;22.75;11.75;;;13.50;97.90;;;;;;5008527;28;20535;-74
2022/04/19 05:36:18;;;;;;;19.45;11.45;;;13.90;92.80;;;;;;5006873;28;20049;-74
2022/04/19 05:38:44;;;;;;;15.48;10.35;;;13.80;93.90;;;;;;5013073;28;20057;-74
2022/04/19 05:41:10;;;;;;;14.70;9.70;;;13.90;93.40;;;;;;5010571;28;20049;-74
2022/04/19 05:43:36;;;;;;;13.85;8.73;;;13.40;84.30;;;;;;5011766;28;20557;-74
2022/04/19 05:46:02;;;;;;;18.48;9.02;;;12.60;83.00;;;;;;5008123;28;20045;-74
2022/04/19 05:48:28;;;;;;;22.55;9.93;;;12.40;98.60;;;;;;5012194;28;20044;-74
2022/04/19 05:50:54;;;;;;;18.23;9.68;;;11.90;99.90;;;;;;5005052;28;20118;-74
2022/04/19 05:53:21;;;;;;;15.60;9.13;;;10.40;99.90;;;;;;4990391;28;20497;-74
2022/04/19 05:55:46;;;;;;;12.82;8.75;;;10.00;99.90;;;;;;4996747;28;20400;-74
2022/04/19 05:58:13;;;;;;;13.65;9.32;;;9.70;99.90;;;;;;4994201;28;20049;-74
2022/04/19 06:00:39;;;;;;;14.52;8.73;;;9.90;99.90;;;;;;4989039;28;20041;-74
2022/04/19 06:05:49;;;;;;;13.15;8.07;;;10.10;99.90;;;;;;5003391;28;20053;-74
2022/04/19 06:08:15;;;;;;;17.50;8.75;;;10.10;99.90;;;;;;4999071;28;20073;-74
2022/04/19 06:10:42;;;;;;;13.50;8.45;;;10.10;99.90;;;;;;4999841;28;20072;-74
2022/04/19 06:13:08;;;;;;;15.05;8.55;;;10.00;99.90;;;;;;5002352;28;20482;-74
2022/04/19 06:15:34;;;;;;;46.08;10.35;;;10.30;99.90;;;;;;5001814;28;20534;-73
2022/04/19 06:18:00;;;;;;;14.13;8.80;;;11.20;99.90;;;;;;5003833;28;20056;-74
2022/04/19 06:20:27;;;;;;;13.27;8.25;;;10.40;99.90;;;;;;5003069;28;20770;-75
2022/04/19 06:22:52;;;;;;;12.70;8.45;;;10.50;99.90;;;;;;5014497;28;20037;-74
2022/04/19 06:25:18;;;;;;;16.83;8.88;;;10.40;99.90;;;;;;4988287;28;20405;-74
2022/04/19 06:27:45;;;;;;;13.23;7.97;;;10.60;99.90;;;;;;4993672;28;20140;-74
2022/04/19 06:30:11;;;;;;;12.68;8.27;;;10.60;99.90;;;;;;4997400;28;20053;-74
2022/04/19 06:32:37;;;;;;;12.18;8.10;;;10.80;99.90;;;;;;4991707;28;20061;-74
2022/04/19 06:35:03;;;;;;;12.30;8.60;;;11.00;99.90;;;;;;4993526;28;20083;-74
2022/04/19 06:37:30;;;;;;;17.30;8.30;;;11.00;99.90;;;;;;4989448;28;20859;-75
2022/04/19 06:40:06;;;;;;;13.20;9.57;;;11.10;99.90;;;;;;5010509;28;20057;-74
2022/04/19 06:42:32;;;;;;;10.30;7.93;;;11.20;99.90;;;;;;5012562;28;20938;-74
2022/04/19 06:44:58;;;;;;;12.20;8.00;;;11.30;99.90;;;;;;4996538;28;20056;-74
2022/04/19 06:47:25;;;;;;;14.85;8.50;;;11.30;99.90;;;;;;5012621;28;20785;-74
2022/04/19 06:49:52;;;;;;;12.70;8.38;;;11.40;99.90;;;;;;5013618;28;20045;-74
2022/04/19 06:52:19;;;;;;;12.43;7.93;;;11.70;99.90;;;;;;5011573;28;20280;-74
2022/04/19 06:54:45;;;;;;;10.57;7.35;;;11.30;99.90;;;;;;5010579;28;20870;-75
2022/04/19 06:57:11;;;;;;;13.93;8.27;;;11.40;99.90;;;;;;5014445;28;20049;-74
2022/04/19 06:59:36;;;;;;;12.48;7.68;;;11.80;99.90;;;;;;4996507;28;20045;-74
2022/04/19 07:02:02;;;;;;;10.13;6.78;;;11.90;99.90;;;;;;5013564;28;20563;-75
2022/04/19 07:04:29;;;;;;;13.30;7.53;;;11.90;99.90;;;;;;4992895;28;20077;-74
2022/04/19 07:06:55;;;;;;;13.40;7.65;;;12.00;99.90;;;;;;5006569;28;20045;-75
2022/04/19 07:09:21;;;;;;;12.55;8.32;;;12.30;99.90;;;;;;5011925;28;20047;-74
2022/04/19 07:11:47;;;;;;;13.68;7.88;;;12.40;99.90;;;;;;5008462;28;20041;-74
2022/04/19 07:14:13;;;;;;;13.18;8.43;;;12.50;99.90;;;;;;5007780;28;20084;-74
2022/04/19 07:16:39;;;;;;;12.48;7.43;;;12.70;99.90;;;;;;5013205;28;20119;-75
2022/04/19 07:19:05;;;;;;;11.73;7.30;;;12.60;99.90;;;;;;4998243;28;20544;-74
2022/04/19 07:27:00;;;;;;;11.95;7.15;;;13.40;99.90;;;;;;5014401;28;19924;-75
2022/04/19 07:29:25;;;;;;;11.15;7.45;;;13.30;99.90;;;;;;5019606;28;20674;-74
2022/04/19 07:31:51;;;;;;;12.52;7.10;;;13.20;99.90;;;;;;5013580;28;20044;-74
2022/04/19 07:34:17;;;;;;;11.52;6.75;;;13.90;99.90;;;;;;5032341;28;20075;-74
2022/04/19 07:36:43;;;;;;;11.13;7.13;;;13.40;99.90;;;;;;5032812;28;20048;-74
2022/04/19 07:39:11;;;;;;;10.55;7.25;;;13.90;99.90;;;;;;5013321;28;20490;-75
2022/04/19 07:41:37;;;;;;;10.68;7.18;;;13.90;99.90;;;;;;5010870;28;20146;-75
2022/04/19 07:44:04;;;;;;;9.65;6.72;;;13.30;99.90;;;;;;5031597;28;20105;-75
2022/04/19 07:46:31;;;;;;;10.55;6.72;;;13.90;99.90;;;;;;5033178;28;20105;-75
2022/04/19 07:48:58;;;;;;;14.13;6.90;;;13.90;99.90;;;;;;5036684;28;20564;-75
2022/04/19 07:51:25;;;;;;;13.77;6.70;;;14.10;99.90;;;;;;5033161;28;20052;-75
2022/04/19 07:53:51;;;;;;;12.45;6.60;;;14.60;99.90;;;;;;5032908;28;20249;-75
2022/04/19 07:56:18;;;;;;;10.57;6.72;;;14.60;99.90;;;;;;5032035;28;20048;-75
2022/04/19 07:58:46;;;;;;;9.63;6.20;;;14.30;99.90;;;;;;5034016;28;20786;-75
2022/04/19 08:01:13;;;;;;;10.05;5.75;;;14.20;97.80;;;;;;5032346;28;20514;-76
2022/04/19 08:03:39;;;;;;;13.20;6.10;;;15.00;99.90;;;;;;5026726;28;20048;-75
2022/04/19 08:06:05;;;;;;;12.10;6.70;;;14.80;99.90;;;;;;5024160;28;20163;-74
2022/04/19 08:08:31;;;;;;;10.32;6.10;;;15.40;99.90;;;;;;5018793;28;20055;-74
2022/04/19 08:10:57;;;;;;;10.52;6.15;;;14.90;97.50;;;;;;4993040;28;20052;-75
2022/04/19 08:13:24;;;;;;;10.13;5.88;;;15.50;99.90;;;;;;5012500;28;20056;-74
2022/04/19 08:15:50;;;;;;;9.85;6.20;;;14.80;96.10;;;;;;5004756;28;20099;-74
2022/04/19 08:18:18;;;;;;;12.05;6.43;;;14.90;90.50;;;;;;5018844;28;20721;-74
2022/04/19 08:20:45;;;;;;;11.85;6.35;;;14.80;99.90;;;;;;5034025;28;20060;-74
2022/04/19 08:23:11;;;;;;;10.45;6.43;;;14.90;94.10;;;;;;5031839;28;20040;-74
2022/04/19 08:25:38;;;;;;;10.32;6.10;;;15.20;99.90;;;;;;5013496;28;20048;-74
2022/04/19 08:28:05;;;;;;;11.68;5.97;;;15.40;95.40;;;;;;5031037;28;20055;-74
2022/04/19 08:30:31;;;;;;;9.93;6.47;;;14.60;86.60;;;;;;5033997;28;20058;-74
2022/04/19 08:32:57;;;;;;;10.63;5.85;;;14.90;84.50;;;;;;5011468;28;20048;-74
2022/04/19 08:35:23;;;;;;;11.38;6.20;;;14.80;90.10;;;;;;5015996;28;20064;-75
2022/04/19 08:37:50;;;;;;;9.80;6.63;;;14.30;99.90;;;;;;5030286;28;21072;-75
2022/04/19 08:40:16;;;;;;;9.60;6.03;;;14.20;99.90;;;;;;5012962;28;20059;-74
2022/04/19 08:42:43;;;;;;;9.82;5.70;;;14.80;89.50;;;;;;5031855;28;20045;-74
2022/04/19 08:45:11;;;;;;;14.82;6.22;;;14.90;89.00;;;;;;5027615;28;20077;-74
2022/04/19 08:47:41;;;;;;;9.95;5.45;;;15.30;99.40;;;;;;5029593;28;20049;-74
2022/04/19 08:50:12;;;;;;;9.00;5.57;;;15.20;99.90;;;;;;5024110;28;20049;-74
2022/04/19 08:52:39;;;;;;;10.13;5.68;;;14.70;95.20;;;;;;5017631;28;20090;-75
2022/04/19 08:57:52;;;;;;;10.82;5.60;;;14.60;87.40;;;;;;5029374;28;20167;-74
2022/04/19 09:00:22;;;;;;;8.48;5.18;;;14.50;96.50;;;;;;5029956;28;20044;-74
2022/04/19 09:02:50;;;;;;;9.05;5.50;;;14.70;82.70;;;;;;5026978;28;20049;-75
2022/04/19 09:05:19;;;;;;;9.05;4.88;;;15.20;96.30;;;;;;5028078;28;20103;-74
2022/04/19 09:07:47;;;;;;;7.70;4.65;;;14.70;87.60;;;;;;4993372;28;20153;-75
2022/04/19 09:10:14;;;;;;;6.47;4.07;;;15.00;94.20;;;;;;5028860;28;20055;-73
2022/04/19 09:13:04;;;;;;;7.38;3.90;;;15.30;92.90;;;;;;5007841;28;20040;-74
2022/04/19 09:15:32;;;;;;;6.88;4.05;;;15.70;74.40;;;;;;5028005;28;20047;-74
2022/04/19 09:17:59;;;;;;;6.97;3.58;;;15.80;77.70;;;;;;5030346;28;20049;-74
2022/04/19 09:20:25;;;;;;;5.93;3.60;;;16.20;72.60;;;;;;5011637;28;20444;-74
2022/04/19 09:23:07;;;;;;;6.80;3.38;;;16.40;76.00;;;;;;5028581;28;20052;-74
2022/04/19 09:25:34;;;;;;;7.32;3.75;;;15.20;66.70;;;;;;5027731;28;20051;-74
2022/04/19 09:28:02;;;;;;;7.13;3.85;;;15.80;74.10;;;;;;5011327;28;20052;-74
2022/04/19 09:30:37;;;;;;;6.85;3.20;;;15.70;71.40;;;;;;5008840;28;20064;-73
2022/04/19 09:33:11;;;;;;;6.03;3.08;;;15.90;63.20;;;;;;4989074;28;20049;-73
2022/04/19 09:35:43;;;;;;;4.88;2.80;;;15.90;61.60;;;;;;5009464;28;20068;-74
2022/04/19 09:38:09;;;;;;;6.65;2.85;;;15.90;63.30;;;;;;5022545;28;20635;-74
2022/04/19 09:40:38;;;;;;;6.35;3.00;;;15.70;63.00;;;;;;5019199;28;20053;-74
2022/04/19 09:43:11;;;;;;;7.63;2.92;;;15.50;58.80;;;;;;5028922;28;20059;-73
2022/04/19 09:45:54;;;;;;;5.05;2.40;;;15.60;63.00;;;;;;5024321;28;20041;-74
2022/04/19 09:48:23;;;;;;;7.90;2.90;;;15.80;55.60;;;;;;5027413;28;20106;-74
2022/04/19 09:50:51;;;;;;;7.00;2.90;;;15.70;59.30;;;;;;5009490;28;20551;-73
2022/04/19 09:53:19;;;;;;;6.13;2.72;;;16.00;58.50;;;;;;5010789;28;20044;-73
2022/04/19 09:55:50;;;;;;;5.13;2.90;;;16.40;60.90;;;;;;4994564;28;20672;-72
2022/04/19 09:58:16;;;;;;;6.10;2.97;;;16.10;57.40;;;;;;5009537;28;20529;-74
2022/04/19 10:00:44;;;;;;;6.72;3.22;;;16.20;58.10;;;;;;5027574;28;20049;-74
2022/04/19 10:08:44;;;;;;;7.45;2.70;;;16.30;61.10;;;;;;5024343;28;20094;-74
2022/04/19 10:11:09;;;;;;;4.78;2.78;;;16.30;59.10;;;;;;5026178;28;20041;-74
2022/04/19 10:13:38;;;;;;;5.43;2.42;;;16.50;63.00;;;;;;5007865;28;21034;-74
2022/04/19 10:16:11;;;;;;;6.32;2.15;;;16.60;55.30;;;;;;5006154;28;20072;-75
2022/04/19 10:18:37;;;;;;;2.92;2.10;;;16.80;56.40;;;;;;4999601;28;20037;-74
2022/04/19 10:21:07;;;;;;;4.60;2.40;;;16.00;57.10;;;;;;5007490;28;20063;-74
2022/04/19 10:23:39;;;;;;;7.32;2.45;;;16.40;56.80;;;;;;5008155;28;20048;-74
2022/04/19 10:26:14;;;;;;;5.22;2.40;;;16.10;52.70;;;;;;5023272;28;20591;-74
2022/04/19 10:28:40;;;;;;;4.82;2.47;;;16.50;57.50;;;;;;5009329;28;20142;-74
2022/04/19 10:31:06;;;;;;;4.25;2.20;;;16.10;57.90;;;;;;5023826;28;20119;-75
2022/04/19 10:33:52;;;;;;;4.15;1.90;;;16.40;60.20;;;;;;5023240;28;20575;-74
2022/04/19 10:36:39;;;;;;;4.38;1.98;;;16.60;54.50;;;;;;5021342;28;20978;-74
2022/04/19 10:39:15;;;;;;;5.88;2.05;;;16.40;55.10;;;;;;5029009;28;20060;-75
2022/04/19 10:41:59;;;;;;;5.22;2.72;;;16.30;55.00;;;;;;5028836;28;20053;-74
2022/04/19 10:44:44;;;;;;;10.23;2.30;;;16.80;60.10;;;;;;5025603;28;20037;-75
2022/04/19 10:47:16;;;;;;;6.90;2.20;;;16.50;57.70;;;;;;5013266;28;20060;-76
2022/04/19 10:50:04;;;;;;;4.38;2.40;;;16.20;54.10;;;;;;5008645;28;20060;-74
2022/04/19 10:52:39;;;;;;;6.53;2.70;;;16.40;56.70;;;;;;5028834;28;20088;-75
2022/04/19 10:55:09;;;;;;;5.90;2.20;;;16.20;56.20;;;;;;5029778;28;20051;-74
2022/04/19 11:00:41;;;;;;;4.80;2.35;;;16.60;55.80;;;;;;5008215;28;20458;-74
2022/04/19 11:03:37;;;;;;;4.15;2.33;;;16.40;55.30;;;;;;5030899;28;20055;-74
2022/04/19 11:06:31;;;;;;;4.93;2.72;;;16.90;59.80;;;;;;5023882;28;20061;-75
2022/04/19 11:09:16;;;;;;;5.90;2.50;;;16.50;59.30;;;;;;5032619;28;20084;-74
2022/04/19 11:11:51;;;;;;;5.28;2.50;;;16.60;58.30;;;;;;5016548;28;21145;-74
2022/04/19 11:14:43;;;;;;;4.32;2.10;;;16.90;60.30;;;;;;5009412;28;20586;-74
2022/04/19 11:17:27;;;;;;;4.60;1.92;;;16.70;54.10;;;;;;5010266;28;20069;-75
2022/04/19 11:20:14;;;;;;;4.50;1.90;;;17.00;58.90;;;;;;5019410;28;20053;-75
2022/04/19 11:22:48;;;;;;;4.57;1.60;;;17.10;61.00;;;;;;5029684;28;20056;-74
2022/04/19 11:25:14;;;;;;;3.00;1.63;;;17.00;61.90;;;;;;5015978;28;20067;-74
2022/04/19 11:27:52;;;;;;;5.25;1.83;;;17.10;56.90;;;;;;4999079;28;20060;-75
2022/04/19 11:30:23;;;;;;;4.40;1.70;;;16.90;56.70;;;;;;5032640;28;20087;-74
2022/04/19 11:32:58;;;;;;;4.97;1.60;;;17.10;62.00;;;;;;5028974;28;20484;-75
2022/04/19 11:35:24;;;;;;;4.53;1.90;;;17.10;61.80;;;;;;5029343;28;20087;-74
2022/04/19 11:37:50;;;;;;;7.00;1.85;;;17.00;60.10;;;;;;5028820;28;20097;-74
2022/04/19 11:48:52;;;;;;;6.15;1.83;;;17.10;57.50;;;;;;5014165;28;20052;-75
2022/04/19 11:51:20;;;;;;;4.70;2.00;;;17.20;60.30;;;;;;5010147;28;20142;-75
2022/04/19 11:53:47;;;;;;;4.15;1.90;;;16.90;59.20;;;;;;5005973;28;20543;-75
2022/04/19 11:56:14;;;;;;;3.42;1.73;;;16.90;59.90;;;;;;5004232;28;20057;-75
2022/04/19 11:58:43;;;;;;;3.58;1.80;;;17.10;61.50;;;;;;5005940;28;20500;-75
2022/04/19 12:01:10;;;;;;;2.80;1.52;;;16.90;57.50;;;;;;5009709;28;20049;-75
2022/04/19 12:03:39;;;;;;;3.70;1.60;;;17.60;60.20;;;;;;5006224;28;20152;-74
2022/04/19 12:06:11;;;;;;;3.50;1.70;;;17.10;55.10;;;;;;5010378;28;20037;-75
2022/04/19 12:08:41;;;;;;;4.80;2.30;;;16.90;57.10;;;;;;5008634;28;20052;-75
2022/04/19 12:11:10;;;;;;;5.70;1.90;;;16.90;59.40;;;;;;5011290;28;20477;-74
2022/04/19 12:13:37;;;;;;;5.88;2.13;;;17.10;55.50;;;;;;5008157;28;20103;-76
2022/04/19 12:16:07;;;;;;;6.63;2.17;;;17.30;60.80;;;;;;5012282;28;20086;-76
2022/04/19 12:18:38;;;;;;;4.28;1.90;;;17.20;60.70;;;;;;5011504;28;20053;-76
2022/04/19 12:21:05;;;;;;;4.75;1.92;;;16.90;58.60;;;;;;5010601;28;20049;-75
2022/04/19 12:23:31;;;;;;;4.97;2.15;;;17.30;62.30;;;;;;5011451;28;20116;-76
2022/04/19 12:26:02;;;;;;;4.22;1.80;;;17.30;57.90;;;;;;5014686;28;20045;-75
2022/04/19 12:28:45;;;;;;;4.53;1.88;;;17.50;59.60;;;;;;5010757;28;20118;-75
2022/04/19 12:31:39;;;;;;;3.75;1.70;;;17.80;58.60;;;;;;5005147;28;20060;-75
2022/04/19 12:34:06;;;;;;;;;;;17.10;57.80;;;;;;5010681;28;20050;-76
2022/04/19 12:36:50;;;;;;;4.93;1.60;;;17.00;56.50;;;;;;4992658;28;20757;-76
2022/04/19 12:39:21;;;;;;;5.78;2.08;;;17.00;56.30;;;;;;5001452;28;20062;-76
2022/04/19 12:41:49;;;;;;;5.15;2.30;;;17.10;59.60;;;;;;5000900;28;20057;-75
2022/04/19 12:44:19;;;;;;;16.38;3.13;;;17.00;58.50;;;;;;4998133;28;20041;-75
2022/04/19 12:46:51;;;;;;;5.88;2.25;;;17.50;58.90;;;;;;5006094;28;20057;-75
2022/04/19 12:49:31;;;;;;;5.70;1.90;;;18.20;59.40;;;;;;4997815;28;20073;-75
2022/04/19 12:52:05;;;;;;;4.82;1.60;;;18.00;56.60;;;;;;4997041;28;20049;-76
2022/04/19 12:54:33;;;;;;;6.45;2.20;;;17.50;56.10;;;;;;5000787;28;20080;-75
2022/04/19 12:57:01;;;;;;;7.90;2.00;;;17.60;58.10;;;;;;4997430;28;20049;-75
2022/04/19 12:59:31;;;;;;;3.75;1.73;;;17.50;58.90;;;;;;4996494;28;20052;-75
2022/04/19 13:01:57;;;;;;;3.95;1.90;;;17.10;55.30;;;;;;4992303;28;20069;-75
2022/04/19 13:04:24;;;;;;;5.90;2.17;;;17.50;53.60;;;;;;5008200;28;20200;-75
2022/04/19 13:12:22;;;;;;;4.50;2.05;;;17.30;54.40;;;;;;4995434;28;20523;-75
2022/04/19 13:14:49;;;;;;;3.60;2.15;;;17.40;56.50;;;;;;4993118;28;20053;-75
2022/04/19 13:17:16;;;;;;;4.47;2.03;;;17.50;55.60;;;;;;4995773;28;21058;-75
2022/04/19 13:19:43;;;;;;;5.43;2.38;;;17.00;54.10;;;;;;4994487;28;20045;-76
2022/04/19 13:22:10;;;;;;;4.72;2.40;;;17.10;54.90;;;;;;4987466;28;20046;-75
2022/04/19 13:24:38;;;;;;;5.22;2.42;;;17.70;55.60;;;;;;4992766;28;20052;-75
2022/04/19 13:27:07;;;;;;;3.53;2.22;;;17.80;58.70;;;;;;4991590;28;20088;-75
2022/04/19 13:29:38;;;;;;;4.93;2.08;;;17.50;57.10;;;;;;4991102;28;20053;-75
2022/04/19 13:32:05;;;;;;;4.15;2.30;;;18.00;57.50;;;;;;4979285;28;20087;-75
2022/04/19 13:34:32;;;;;;;6.97;2.20;;;17.90;54.60;;;;;;4972240;28;20547;-75